Time;durP1;ratioP1;P1;durP2;ratioP2;P2;SDS_P1;SDS_P2;PMS_P1;PMS_P2;Temp;Humidity;BMP_temperature;BMP_pressure;BME280_temperature;BME280_humidity;BME280_pressure;Samples;Min_cycle;Max_cycle;Signal;HPM_P1;HPM_P2
2022/03/22 00:02:05;;;;;;;28.27;12.00;;;4.70;99.40;;;;;;5073921;28;20021;-93
2022/03/22 00:04:32;;;;;;;38.67;14.15;;;4.60;99.40;;;;;;5074324;28;20115;-93
2022/03/22 00:06:57;;;;;;;32.00;12.02;;;4.60;99.50;;;;;;5074567;28;20017;-93
2022/03/22 00:09:24;;;;;;;32.40;12.23;;;4.60;99.60;;;;;;5074137;28;20090;-94
2022/03/22 00:11:50;;;;;;;27.65;11.05;;;4.60;99.80;;;;;;5073988;28;20123;-93
2022/03/22 00:14:17;;;;;;;41.33;14.55;;;4.50;99.70;;;;;;5074374;28;20107;-93
2022/03/22 00:16:44;;;;;;;30.67;12.45;;;4.50;99.70;;;;;;5075454;28;20025;-93
2022/03/22 00:19:11;;;;;;;27.50;11.57;;;4.50;99.70;;;;;;5073646;28;20048;-94
2022/03/22 00:21:37;;;;;;;30.15;12.25;;;4.50;99.90;;;;;;5074081;28;20056;-93
2022/03/22 00:24:05;;;;;;;22.27;11.05;;;4.40;99.90;;;;;;5057118;28;20055;-93
2022/03/22 00:26:30;;;;;;;26.52;10.45;;;4.40;99.80;;;;;;5041104;28;20020;-94
2022/03/22 00:28:57;;;;;;;30.38;11.65;;;4.30;99.90;;;;;;5073064;28;20098;-93
2022/03/22 00:31:23;;;;;;;23.30;11.68;;;4.30;99.90;;;;;;5073776;28;20028;-93
2022/03/22 00:33:48;;;;;;;21.90;10.35;;;4.30;99.90;;;;;;5056972;28;20021;-93
2022/03/22 00:36:14;;;;;;;27.30;10.65;;;4.30;99.90;;;;;;5073696;28;20025;-93
2022/03/22 00:38:43;;;;;;;24.67;10.48;;;4.20;99.90;;;;;;5056714;28;20032;-94
2022/03/22 00:41:09;;;;;;;28.35;12.27;;;4.20;99.90;;;;;;5074048;28;20108;-93
2022/03/22 00:43:36;;;;;;;23.77;11.25;;;4.10;99.90;;;;;;5073431;28;20063;-93
2022/03/22 00:46:02;;;;;;;20.83;10.07;;;4.10;99.90;;;;;;5073850;28;20020;-94
2022/03/22 00:48:28;;;;;;;21.85;10.45;;;4.00;99.90;;;;;;5073268;28;20036;-94
2022/03/22 00:50:54;;;;;;;21.95;10.20;;;4.00;99.90;;;;;;5074931;28;20352;-94
2022/03/22 00:53:20;;;;;;;22.45;11.10;;;4.00;99.90;;;;;;5073504;28;20035;-94
2022/03/22 00:55:47;;;;;;;39.72;13.38;;;3.90;99.90;;;;;;5073191;28;20027;-93
2022/03/22 00:58:13;;;;;;;26.45;11.93;;;3.90;99.90;;;;;;5073903;28;20032;-92
2022/03/22 01:00:41;;;;;;;24.80;10.88;;;3.90;99.90;;;;;;5073401;28;20031;-93
2022/03/22 01:03:08;;;;;;;21.10;10.25;;;3.80;99.90;;;;;;5073294;28;20025;-93
2022/03/22 01:05:35;;;;;;;23.92;9.75;;;3.80;99.90;;;;;;5056763;28;20033;-94
2022/03/22 01:08:06;;;;;;;21.25;10.13;;;3.80;99.90;;;;;;5073287;28;20447;-93
2022/03/22 01:10:37;;;;;;;22.65;10.48;;;3.80;99.90;;;;;;5074169;28;20044;-94
2022/03/22 01:13:03;;;;;;;28.92;11.82;;;3.70;99.90;;;;;;5073329;28;20032;-94
2022/03/22 01:15:34;;;;;;;28.08;11.85;;;3.70;99.90;;;;;;5040104;28;20032;-93
2022/03/22 01:18:05;;;;;;;29.23;11.45;;;3.60;99.90;;;;;;5073282;28;20543;-93
2022/03/22 01:20:36;;;;;;;30.25;12.10;;;3.60;99.90;;;;;;5056575;28;20044;-93
2022/03/22 01:23:04;;;;;;;27.30;11.27;;;3.60;99.90;;;;;;5073884;28;20039;-93
2022/03/22 01:25:30;;;;;;;31.77;12.40;;;3.60;99.90;;;;;;5073140;28;20025;-93
2022/03/22 01:27:57;;;;;;;44.47;14.45;;;3.50;99.90;;;;;;5073277;28;20048;-94
2022/03/22 01:30:25;;;;;;;32.70;12.27;;;3.50;99.90;;;;;;5056675;28;20548;-93
2022/03/22 01:32:53;;;;;;;28.65;10.85;;;3.50;99.90;;;;;;5056353;28;20487;-93
2022/03/22 01:35:20;;;;;;;30.63;12.52;;;3.50;99.90;;;;;;5056710;28;20082;-93
2022/03/22 01:37:47;;;;;;;29.27;12.00;;;3.50;99.90;;;;;;5073930;28;20455;-93
2022/03/22 01:40:18;;;;;;;34.85;11.85;;;3.50;99.90;;;;;;5072648;28;20110;-93
2022/03/22 01:42:45;;;;;;;25.08;10.80;;;3.40;99.90;;;;;;5061175;28;20120;-93
2022/03/22 01:45:11;;;;;;;22.20;10.20;;;3.40;99.90;;;;;;5077580;28;20048;-93
2022/03/22 01:47:41;;;;;;;22.58;10.05;;;3.40;99.90;;;;;;5076832;28;20478;-93
2022/03/22 01:50:11;;;;;;;24.20;9.65;;;3.50;99.90;;;;;;5077186;28;20029;-93
2022/03/22 01:52:43;;;;;;;21.70;10.45;;;3.50;99.90;;;;;;5060903;28;20040;-93
2022/03/22 01:55:13;;;;;;;28.65;10.57;;;3.50;99.90;;;;;;5078205;28;20086;-93
2022/03/22 01:57:39;;;;;;;23.88;10.60;;;3.50;99.90;;;;;;5077113;28;20025;-93
2022/03/22 02:00:08;;;;;;;19.33;9.13;;;3.40;99.90;;;;;;5078017;28;20424;-94
2022/03/22 02:08:11;;;;;;;19.50;10.38;;;3.30;99.90;;;;;;5078523;28;20501;-93
2022/03/22 02:10:37;;;;;;;22.80;9.77;;;3.30;99.90;;;;;;5076452;28;20475;-93
2022/03/22 02:13:04;;;;;;;16.60;8.80;;;3.20;99.90;;;;;;5076291;28;20463;-94
2022/03/22 02:15:29;;;;;;;19.92;10.30;;;3.20;99.90;;;;;;5075682;28;20086;-93
2022/03/22 02:17:56;;;;;;;23.02;10.00;;;3.10;99.90;;;;;;5076231;28;20474;-94
2022/03/22 02:20:22;;;;;;;21.65;9.90;;;3.10;99.90;;;;;;5075780;28;20056;-93
2022/03/22 02:23:44;;;;;;;18.40;9.45;;;3.00;99.90;;;;;;5076694;28;20108;-93
2022/03/22 02:26:10;;;;;;;23.92;9.40;;;2.90;99.90;;;;;;5026173;28;20360;-93
2022/03/22 02:28:36;;;;;;;21.13;9.65;;;2.90;99.90;;;;;;5059869;28;20082;-94
2022/03/22 02:31:02;;;;;;;18.85;9.65;;;2.80;99.90;;;;;;5076346;28;20517;-95
2022/03/22 02:33:28;;;;;;;16.02;9.00;;;2.90;99.90;;;;;;5076194;28;20067;-94
2022/03/22 02:35:53;;;;;;;21.63;9.32;;;2.80;99.90;;;;;;5076016;28;20029;-94
2022/03/22 02:38:20;;;;;;;21.02;9.20;;;2.80;99.90;;;;;;5076086;28;20475;-93
2022/03/22 02:40:46;;;;;;;19.02;8.98;;;2.80;99.90;;;;;;5075738;28;20167;-93
2022/03/22 02:43:12;;;;;;;16.77;9.27;;;2.80;99.90;;;;;;5075929;28;20025;-93
2022/03/22 02:45:39;;;;;;;17.90;9.10;;;2.80;99.90;;;;;;5075532;28;20536;-93
2022/03/22 02:48:05;;;;;;;21.05;9.55;;;2.70;99.90;;;;;;5075519;28;20031;-93
2022/03/22 02:50:30;;;;;;;21.05;9.52;;;2.70;99.90;;;;;;5075511;28;20111;-93
2022/03/22 02:52:57;;;;;;;22.40;10.55;;;2.70;99.90;;;;;;5058567;28;20470;-93
2022/03/22 02:55:22;;;;;;;21.88;9.93;;;2.70;99.90;;;;;;5075911;28;20032;-93
2022/03/22 02:57:48;;;;;;;24.67;10.02;;;2.60;99.90;;;;;;5058808;28;20024;-94
2022/03/22 03:00:15;;;;;;;19.98;10.13;;;2.60;99.90;;;;;;5059150;28;20383;-94
2022/03/22 03:02:48;;;;;;;20.08;9.43;;;2.50;99.90;;;;;;5042738;28;20025;-93
2022/03/22 03:05:15;;;;;;;16.35;8.68;;;2.50;99.90;;;;;;5075956;28;20025;-93
2022/03/22 03:07:43;;;;;;;19.98;9.57;;;2.50;99.90;;;;;;5059047;28;20035;-93
2022/03/22 03:10:09;;;;;;;19.45;9.52;;;2.40;99.90;;;;;;5075274;28;20025;-93
2022/03/22 03:12:37;;;;;;;18.50;8.73;;;2.40;99.90;;;;;;5076445;28;20028;-93
2022/03/22 03:15:05;;;;;;;21.73;9.75;;;2.40;99.90;;;;;;5059076;28;20384;-93
2022/03/22 03:17:33;;;;;;;21.88;9.38;;;2.40;99.90;;;;;;5058586;28;20086;-93
2022/03/22 03:19:59;;;;;;;20.88;10.45;;;2.40;99.90;;;;;;5058753;28;20072;-94
2022/03/22 03:22:24;;;;;;;23.70;9.90;;;2.40;99.90;;;;;;5075577;28;20482;-93
2022/03/22 03:24:50;;;;;;;19.67;9.35;;;2.30;99.90;;;;;;5075497;28;20023;-93
2022/03/22 03:27:16;;;;;;;16.88;8.95;;;2.30;99.90;;;;;;5058297;28;20025;-93
2022/03/22 03:29:42;;;;;;;18.80;9.27;;;2.30;99.90;;;;;;5074817;28;20031;-93
2022/03/22 03:32:08;;;;;;;16.40;8.73;;;2.30;99.90;;;;;;5058487;28;20033;-94
2022/03/22 03:34:34;;;;;;;21.55;9.25;;;2.30;99.90;;;;;;5058632;28;20032;-93
2022/03/22 03:37:00;;;;;;;20.05;9.07;;;2.30;99.90;;;;;;5074744;28;20443;-94
2022/03/22 03:39:26;;;;;;;17.80;8.63;;;2.20;99.90;;;;;;5074871;28;20115;-93
2022/03/22 03:41:54;;;;;;;18.75;9.23;;;2.20;99.90;;;;;;5058140;28;20037;-95
2022/03/22 03:47:11;;;;;;;17.08;8.98;;;2.20;99.90;;;;;;5076328;28;20058;-94
2022/03/22 03:49:46;;;;;;;17.70;9.38;;;2.20;99.90;;;;;;5058366;28;20120;-93
2022/03/22 03:52:15;;;;;;;17.42;8.35;;;2.10;99.90;;;;;;5058267;28;20029;-94
2022/03/22 03:54:41;;;;;;;18.27;8.73;;;2.10;99.90;;;;;;5074858;28;20021;-93
2022/03/22 03:57:08;;;;;;;16.92;8.32;;;2.00;99.90;;;;;;5074216;28;20074;-93
2022/03/22 03:59:34;;;;;;;22.23;9.20;;;2.00;99.90;;;;;;5074641;28;20060;-94
2022/03/22 04:02:02;;;;;;;20.13;8.98;;;2.00;99.90;;;;;;5074343;28;20090;-93
2022/03/22 04:04:28;;;;;;;18.80;8.60;;;1.90;99.90;;;;;;5073861;28;20434;-93
2022/03/22 04:06:55;;;;;;;19.42;8.93;;;1.90;99.90;;;;;;5057851;28;20040;-93
2022/03/22 04:09:21;;;;;;;15.15;9.18;;;1.90;99.90;;;;;;5074546;28;20375;-93
2022/03/22 04:11:46;;;;;;;15.70;8.93;;;1.90;99.90;;;;;;5074182;28;20020;-94
2022/03/22 04:14:13;;;;;;;15.15;9.30;;;1.90;99.90;;;;;;5073867;28;20122;-93
2022/03/22 04:16:42;;;;;;;18.52;8.23;;;1.90;99.90;;;;;;5074700;28;20028;-93
2022/03/22 04:19:08;;;;;;;17.35;8.10;;;1.90;99.90;;;;;;5073935;28;20052;-94
2022/03/22 04:21:36;;;;;;;22.73;9.63;;;1.90;99.90;;;;;;5075217;28;20032;-93
2022/03/22 04:24:05;;;;;;;23.17;8.60;;;1.90;99.90;;;;;;5073877;28;20077;-93
2022/03/22 04:26:35;;;;;;;17.05;8.20;;;1.90;99.90;;;;;;5074340;28;20048;-93
2022/03/22 04:34:32;;;;;;;16.60;7.95;;;2.10;99.90;;;;;;5074944;28;20039;-94
2022/03/22 04:37:00;;;;;;;15.70;8.52;;;2.10;99.90;;;;;;5073730;28;20032;-93
2022/03/22 04:39:30;;;;;;;17.05;8.18;;;2.20;99.90;;;;;;5041860;28;20032;-93
2022/03/22 04:41:57;;;;;;;15.40;7.35;;;2.20;99.90;;;;;;5073382;28;20490;-93
2022/03/22 04:44:26;;;;;;;16.73;7.80;;;2.30;99.90;;;;;;5074831;28;20036;-93
2022/03/22 04:46:54;;;;;;;17.13;8.10;;;2.30;99.90;;;;;;5073836;28;20024;-93
2022/03/22 04:49:20;;;;;;;14.90;8.10;;;2.40;99.90;;;;;;5073097;28;20463;-93
2022/03/22 04:57:17;;;;;;;16.33;7.45;;;2.50;99.90;;;;;;5069973;28;20023;-93
2022/03/22 04:59:43;;;;;;;17.48;7.82;;;2.60;99.90;;;;;;5072843;28;20024;-93
2022/03/22 05:02:10;;;;;;;17.13;7.53;;;2.70;99.90;;;;;;5074168;28;20135;-93
2022/03/22 05:04:37;;;;;;;20.63;8.25;;;2.70;99.90;;;;;;5072795;28;20103;-93
2022/03/22 05:07:03;;;;;;;15.10;7.18;;;2.90;99.90;;;;;;5073392;28;20028;-93
2022/03/22 05:09:29;;;;;;;16.52;7.20;;;3.00;99.90;;;;;;5073408;28;20082;-93
2022/03/22 05:11:59;;;;;;;20.52;7.32;;;3.00;99.90;;;;;;5056283;28;20028;-93
2022/03/22 05:14:24;;;;;;;16.60;7.55;;;3.10;99.90;;;;;;5057195;28;20082;-93
2022/03/22 05:16:50;;;;;;;14.07;6.70;;;3.20;99.90;;;;;;5074366;28;20067;-93
2022/03/22 05:19:18;;;;;;;16.08;7.05;;;3.30;99.90;;;;;;5066349;28;20499;-92
2022/03/22 05:21:45;;;;;;;14.50;6.25;;;3.40;99.90;;;;;;5035933;28;20124;-92
2022/03/22 05:24:13;;;;;;;13.40;6.65;;;3.50;99.90;;;;;;5036622;28;20025;-92
2022/03/22 05:26:39;;;;;;;18.95;6.90;;;3.60;99.90;;;;;;5036495;28;20021;-92
2022/03/22 05:29:05;;;;;;;16.88;7.80;;;3.70;99.90;;;;;;5036428;28;20375;-92
2022/03/22 05:31:34;;;;;;;18.77;7.45;;;3.70;99.90;;;;;;5036424;28;20025;-93
2022/03/22 05:34:00;;;;;;;14.90;7.15;;;3.90;99.90;;;;;;5036469;28;20022;-92
2022/03/22 05:36:28;;;;;;;13.02;7.53;;;3.90;99.90;;;;;;5054331;28;20352;-93
2022/03/22 05:38:54;;;;;;;16.27;7.72;;;4.00;99.90;;;;;;5036259;28;20036;-92
2022/03/22 05:41:20;;;;;;;14.57;7.25;;;4.00;99.90;;;;;;5036179;28;20021;-91
2022/03/22 05:43:51;;;;;;;17.15;7.22;;;4.10;99.90;;;;;;5054178;28;20471;-91
2022/03/22 05:46:17;;;;;;;16.13;7.20;;;4.20;99.90;;;;;;5036312;28;20075;-92
2022/03/22 05:48:44;;;;;;;15.60;8.43;;;4.20;99.90;;;;;;5022119;28;20029;-92
2022/03/22 05:51:10;;;;;;;16.25;8.20;;;4.20;99.90;;;;;;5036468;28;20361;-91
2022/03/22 05:53:37;;;;;;;15.55;8.27;;;4.20;99.90;;;;;;5036240;28;20049;-91
2022/03/22 05:56:03;;;;;;;18.27;9.13;;;4.30;99.90;;;;;;5019941;28;20033;-92
2022/03/22 05:58:29;;;;;;;19.98;8.68;;;4.30;99.90;;;;;;5036868;28;20471;-91
2022/03/22 06:00:55;;;;;;;20.10;8.10;;;4.40;99.90;;;;;;5035907;28;20075;-91
2022/03/22 16:22:35;;;;;;;22.25;7.28;;;6.80;69.40;;;;;;5092448;27;20378;-92
2022/03/22 16:25:03;;;;;;;14.82;7.07;;;6.50;69.90;;;;;;5089983;28;20375;-93
2022/03/22 16:27:29;;;;;;;16.05;6.80;;;6.40;71.30;;;;;;5089249;28;20056;-93
2022/03/22 16:29:55;;;;;;;22.55;7.47;;;6.30;71.90;;;;;;5090174;28;20447;-93
2022/03/22 16:36:45;;;;;;;20.65;7.70;;;6.30;72.80;;;;;;5090114;28;20061;-93
2022/03/22 16:38:01;;;;;;;14.52;7.00;;;6.20;74.50;;;;;;5075091;28;20032;-93
2022/03/22 16:40:30;;;;;;;17.63;7.07;;;6.10;74.70;;;;;;5088773;28;20027;-93
2022/03/22 16:42:56;;;;;;;17.95;6.70;;;6.10;75.30;;;;;;5090231;28;20025;-93
2022/03/22 16:45:23;;;;;;;18.77;6.80;;;6.10;75.60;;;;;;5090004;28;20031;-93
2022/03/22 16:47:50;;;;;;;21.10;6.95;;;6.00;76.00;;;;;;5089956;28;20021;-92
2022/03/22 16:50:18;;;;;;;18.42;7.00;;;6.00;76.30;;;;;;5090168;28;20028;-93
2022/03/22 16:52:45;;;;;;;19.77;7.57;;;6.00;76.40;;;;;;5090708;28;20025;-92
2022/03/22 16:55:11;;;;;;;19.27;7.13;;;5.90;76.50;;;;;;5090250;28;20475;-93
2022/03/22 16:57:37;;;;;;;22.45;7.28;;;5.90;76.70;;;;;;5090249;28;20031;-93
2022/03/22 17:00:07;;;;;;;15.25;6.53;;;5.80;77.10;;;;;;5090334;28;20106;-92
2022/03/22 17:02:34;;;;;;;17.92;6.93;;;5.80;77.40;;;;;;5090042;28;20028;-93
2022/03/22 17:05:04;;;;;;;17.73;7.20;;;5.80;77.60;;;;;;5090566;28;20475;-93
2022/03/22 17:07:36;;;;;;;;;;;5.70;77.80;;;;;;5090948;28;20024;-92
2022/03/22 17:10:05;;;;;;;21.40;7.45;;;5.60;78.00;;;;;;5090105;28;19999;-93
2022/03/22 17:12:32;;;;;;;18.73;7.20;;;5.60;78.10;;;;;;5089850;28;20021;-92
2022/03/22 17:14:58;;;;;;;20.50;7.93;;;5.50;78.50;;;;;;5089944;28;20068;-92
2022/03/22 17:17:24;;;;;;;20.20;7.22;;;5.50;78.50;;;;;;5090659;28;20024;-92
2022/03/22 17:19:50;;;;;;;22.95;7.50;;;5.40;78.90;;;;;;5090122;28;20505;-93
2022/03/22 17:22:17;;;;;;;27.33;8.88;;;5.40;78.70;;;;;;5096034;28;20051;-92
2022/03/22 17:24:43;;;;;;;20.65;7.82;;;5.40;79.20;;;;;;5092127;28;20119;-92
2022/03/22 17:27:09;;;;;;;23.80;8.43;;;5.30;79.30;;;;;;5090298;28;20025;-92
2022/03/22 17:29:39;;;;;;;17.15;8.70;;;5.30;79.60;;;;;;5089580;28;20166;-93
2022/03/22 17:32:06;;;;;;;18.97;8.20;;;5.20;79.20;;;;;;5086455;28;20028;-92
2022/03/22 17:34:32;;;;;;;24.67;9.73;;;5.10;79.40;;;;;;5075986;28;20822;-92
2022/03/22 17:36:58;;;;;;;21.23;9.75;;;5.10;79.60;;;;;;5076114;28;20059;-92
2022/03/22 17:39:23;;;;;;;23.42;10.30;;;5.10;80.00;;;;;;5075887;28;20028;-92
2022/03/22 17:41:49;;;;;;;32.80;12.18;;;5.10;80.40;;;;;;5075919;28;20497;-92
2022/03/22 17:44:15;;;;;;;27.48;11.75;;;5.00;80.70;;;;;;5075931;28;20108;-92
2022/03/22 17:46:41;;;;;;;37.50;17.13;;;5.00;80.70;;;;;;5075965;28;20013;-92
2022/03/22 17:49:06;;;;;;;36.42;16.80;;;4.90;80.70;;;;;;5075831;28;20048;-92
2022/03/22 17:51:32;;;;;;;40.92;18.77;;;4.90;81.10;;;;;;5075899;28;20052;-92
2022/03/22 17:53:59;;;;;;;37.17;19.80;;;4.80;81.40;;;;;;5075854;28;20546;-92
2022/03/22 17:56:27;;;;;;;43.95;21.10;;;4.80;81.40;;;;;;5075722;28;20028;-92
2022/03/22 17:58:54;;;;;;;50.08;23.83;;;4.80;81.50;;;;;;5075897;28;20108;-92
2022/03/22 18:01:20;;;;;;;48.08;24.33;;;4.70;82.00;;;;;;5075642;28;20026;-92
2022/03/22 18:03:47;;;;;;;50.58;25.85;;;4.70;82.30;;;;;;5075540;28;20025;-93
2022/03/22 18:06:12;;;;;;;63.30;31.15;;;4.60;82.30;;;;;;5075234;28;20095;-93
2022/03/22 18:08:38;;;;;;;86.60;39.58;;;4.60;82.50;;;;;;5075484;28;20467;-92
2022/03/22 18:13:48;;;;;;;112.10;47.05;;;4.50;83.40;;;;;;5076554;28;20081;-93
2022/03/22 18:16:14;;;;;;;126.25;55.95;;;4.50;83.80;;;;;;5075182;28;20054;-92
2022/03/22 18:18:39;;;;;;;107.00;52.13;;;4.50;84.00;;;;;;5076084;28;20040;-93
2022/03/22 18:21:05;;;;;;;126.13;51.58;;;4.40;84.40;;;;;;5075078;28;20048;-92
2022/03/22 18:23:31;;;;;;;108.90;49.90;;;4.40;84.60;;;;;;5075191;28;20107;-94
2022/03/22 18:25:57;;;;;;;128.25;54.97;;;4.40;84.70;;;;;;5075430;28;20102;-93
2022/03/22 18:28:23;;;;;;;126.65;55.20;;;4.40;84.70;;;;;;5075282;28;20074;-94
2022/03/22 18:30:50;;;;;;;119.65;57.67;;;4.30;85.10;;;;;;5075038;28;20027;-93
2022/03/22 18:33:16;;;;;;;139.32;60.45;;;4.30;85.30;;;;;;5075151;28;20035;-92
2022/03/22 18:35:46;;;;;;;128.70;56.33;;;4.30;85.70;;;;;;5074920;28;20027;-93
2022/03/22 18:38:13;;;;;;;128.47;59.57;;;4.30;85.90;;;;;;5075151;28;20478;-91
2022/03/22 18:40:38;;;;;;;147.68;69.47;;;4.20;85.90;;;;;;5074678;28;20111;-92
2022/03/22 18:43:04;;;;;;;148.38;72.35;;;4.20;86.00;;;;;;5075157;28;20428;-91
2022/03/22 18:45:31;;;;;;;149.63;69.68;;;4.20;86.00;;;;;;5075325;28;20047;-91
2022/03/22 18:47:57;;;;;;;154.98;69.75;;;4.10;86.40;;;;;;5074731;28;20016;-92
2022/03/22 18:50:24;;;;;;;158.18;73.18;;;4.00;86.70;;;;;;5074489;28;20024;-91
2022/03/22 18:52:50;;;;;;;170.25;76.82;;;4.00;86.70;;;;;;5074878;28;20029;-92
2022/03/22 18:55:17;;;;;;;163.95;75.85;;;4.00;87.30;;;;;;5074542;28;20103;-92
2022/03/22 18:57:43;;;;;;;170.80;77.07;;;3.90;86.90;;;;;;5074482;28;20472;-92
2022/03/22 19:00:10;;;;;;;170.02;76.57;;;3.90;87.10;;;;;;5074468;28;20077;-92
2022/03/22 19:02:37;;;;;;;161.88;75.53;;;3.80;87.50;;;;;;5074437;28;20467;-91
2022/03/22 19:05:03;;;;;;;164.50;79.45;;;3.80;87.50;;;;;;5074464;28;20101;-91
2022/03/22 19:07:32;;;;;;;177.35;81.90;;;3.80;88.00;;;;;;5074162;28;20023;-91
2022/03/22 19:09:58;;;;;;;177.48;83.57;;;3.70;88.00;;;;;;5074280;28;20017;-91
2022/03/22 19:12:24;;;;;;;192.55;91.50;;;3.70;88.20;;;;;;5075420;28;20371;-91
2022/03/22 19:14:50;;;;;;;204.85;92.38;;;3.70;88.50;;;;;;5074111;28;20052;-91
2022/03/22 19:20:00;;;;;;;191.15;88.18;;;3.60;89.10;;;;;;5075458;28;20082;-91
2022/03/22 19:22:27;;;;;;;183.88;82.38;;;3.60;89.30;;;;;;5073627;28;20080;-91
2022/03/22 19:24:54;;;;;;;187.15;86.90;;;3.60;89.50;;;;;;5073927;28;20048;-91
2022/03/22 19:27:21;;;;;;;185.85;86.40;;;3.60;90.00;;;;;;5073747;28;20108;-91
2022/03/22 19:29:47;;;;;;;194.02;89.03;;;3.50;90.00;;;;;;5073884;28;20021;-91
2022/03/22 19:34:58;;;;;;;182.88;90.28;;;3.50;90.00;;;;;;5075014;28;20077;-91
2022/03/22 19:37:23;;;;;;;185.20;90.32;;;3.40;90.10;;;;;;5073062;28;20024;-92
2022/03/22 19:39:51;;;;;;;193.65;94.57;;;3.30;90.10;;;;;;5073468;28;20383;-92
2022/03/22 19:42:17;;;;;;;203.77;99.13;;;3.30;90.20;;;;;;5073297;28;20024;-91
2022/03/22 19:44:45;;;;;;;201.32;101.20;;;3.30;90.30;;;;;;5072538;28;20116;-91
2022/03/22 19:47:11;;;;;;;215.80;102.93;;;3.30;90.40;;;;;;5073312;28;20471;-92
2022/03/22 19:49:51;;;;;;;231.95;107.78;;;3.30;90.50;;;;;;5079198;28;20059;-91
2022/03/22 19:52:18;;;;;;;235.73;106.93;;;3.20;90.70;;;;;;5075320;28;20046;-92
2022/03/22 19:54:44;;;;;;;225.23;106.25;;;3.20;90.90;;;;;;5073136;28;20513;-91
2022/03/22 19:57:13;;;;;;;224.48;106.25;;;3.20;90.90;;;;;;5072658;28;20024;-91
2022/03/22 19:59:43;;;;;;;210.02;103.22;;;3.20;91.10;;;;;;5072859;28;20028;-92
2022/03/22 20:02:09;;;;;;;215.23;102.10;;;3.10;91.00;;;;;;5073423;28;20017;-91
2022/03/22 20:04:35;;;;;;;226.65;108.63;;;3.10;91.00;;;;;;5073485;28;20063;-92
2022/03/22 20:07:01;;;;;;;232.80;112.80;;;3.10;91.10;;;;;;5072605;28;20025;-91
2022/03/22 20:09:27;;;;;;;262.38;111.32;;;3.00;91.40;;;;;;5073331;28;20020;-91
2022/03/22 20:11:54;;;;;;;254.35;111.47;;;3.00;91.30;;;;;;5073060;28;20030;-91
2022/03/22 20:14:19;;;;;;;255.02;111.78;;;2.90;91.40;;;;;;5072825;28;20027;-91
2022/03/22 20:16:45;;;;;;;256.25;110.68;;;2.90;91.40;;;;;;5069725;28;20394;-91
2022/03/22 20:19:11;;;;;;;246.57;113.18;;;2.90;91.60;;;;;;5072811;28;20078;-92
2022/03/22 20:21:39;;;;;;;252.25;110.30;;;2.90;91.60;;;;;;5072285;28;20384;-91
2022/03/22 20:24:07;;;;;;;244.55;106.25;;;2.80;91.90;;;;;;5072855;28;20013;-92
2022/03/22 20:26:34;;;;;;;224.65;102.70;;;2.80;91.80;;;;;;5073012;28;20063;-90
2022/03/22 20:28:59;;;;;;;231.52;104.43;;;2.80;91.90;;;;;;5072805;28;20382;-91
2022/03/22 20:31:26;;;;;;;224.25;99.43;;;2.80;92.20;;;;;;5072577;28;20029;-91
2022/03/22 20:33:53;;;;;;;199.65;92.10;;;2.80;92.20;;;;;;5072795;28;20070;-91
2022/03/22 20:36:20;;;;;;;183.20;86.25;;;2.70;92.20;;;;;;5072879;28;20459;-92
2022/03/22 20:38:46;;;;;;;167.40;81.68;;;2.70;92.20;;;;;;5070353;28;20032;-92
2022/03/22 20:41:12;;;;;;;161.55;77.90;;;2.70;92.50;;;;;;5072739;28;20021;-91
2022/03/22 20:43:38;;;;;;;157.82;75.47;;;2.70;92.30;;;;;;5072654;28;20021;-91
2022/03/22 20:46:04;;;;;;;168.80;79.28;;;2.70;92.50;;;;;;5072417;28;20017;-91
2022/03/22 20:48:30;;;;;;;163.57;80.40;;;2.60;92.70;;;;;;5072734;28;20122;-91
2022/03/22 20:50:56;;;;;;;163.93;83.20;;;2.60;92.40;;;;;;5072475;28;20386;-92
2022/03/22 20:53:22;;;;;;;163.07;81.63;;;2.60;92.40;;;;;;5072536;28;20101;-91
2022/03/22 21:01:17;;;;;;;197.18;99.38;;;2.40;92.90;;;;;;5072208;28;20027;-92
2022/03/22 21:03:43;;;;;;;243.90;115.95;;;2.40;92.90;;;;;;5072686;28;20028;-92
2022/03/22 21:06:09;;;;;;;262.38;125.30;;;2.30;93.10;;;;;;5072296;28;20479;-92
2022/03/22 21:08:37;;;;;;;270.00;126.53;;;2.30;93.10;;;;;;5075045;28;20027;-92
2022/03/22 21:11:05;;;;;;;305.67;133.70;;;2.30;93.30;;;;;;5076643;28;20025;-91
2022/03/22 21:13:32;;;;;;;367.02;153.02;;;2.30;93.20;;;;;;5076621;28;20352;-91
2022/03/22 21:16:02;;;;;;;390.38;169.80;;;2.30;93.30;;;;;;5076248;28;20107;-91
2022/03/22 21:18:32;;;;;;;414.83;176.57;;;2.20;93.30;;;;;;5073460;28;20031;-91
2022/03/22 21:20:59;;;;;;;409.63;175.93;;;2.20;93.40;;;;;;5075823;28;20048;-91
2022/03/22 21:23:25;;;;;;;444.58;191.23;;;2.20;93.50;;;;;;5075666;28;20058;-91
2022/03/22 21:25:51;;;;;;;450.38;192.90;;;2.20;93.60;;;;;;5075759;28;20055;-91
2022/03/22 21:28:17;;;;;;;423.45;174.98;;;2.10;93.60;;;;;;5075852;28;20040;-91
2022/03/22 21:30:43;;;;;;;456.95;190.65;;;2.10;93.60;;;;;;5075561;28;20021;-91
2022/03/22 21:33:09;;;;;;;559.70;216.02;;;2.10;93.70;;;;;;5075752;28;20024;-92
2022/03/22 21:35:35;;;;;;;557.15;221.20;;;2.10;93.90;;;;;;5075771;28;20028;-91
2022/03/22 21:38:00;;;;;;;624.13;260.45;;;2.00;94.10;;;;;;5075552;28;20066;-91
2022/03/22 21:40:26;;;;;;;603.50;250.27;;;2.00;94.20;;;;;;5075258;28;20028;-91
2022/03/22 21:42:52;;;;;;;540.10;224.32;;;2.00;94.20;;;;;;5075534;28;20017;-91
2022/03/22 21:45:20;;;;;;;471.08;176.18;;;2.00;94.20;;;;;;5075493;28;20048;-91
2022/03/22 21:47:46;;;;;;;463.75;175.95;;;2.00;94.20;;;;;;5075361;28;20039;-91
2022/03/22 21:50:12;;;;;;;457.35;163.68;;;2.00;94.30;;;;;;5075395;28;20459;-91
2022/03/22 21:52:38;;;;;;;426.20;152.57;;;2.00;94.40;;;;;;5075095;28;20485;-91
2022/03/22 21:55:04;;;;;;;394.50;143.15;;;2.10;94.50;;;;;;5075361;28;20082;-91
2022/03/22 21:57:35;;;;;;;384.20;140.68;;;2.00;94.40;;;;;;5075582;28;20028;-90
2022/03/22 22:00:08;;;;;;;376.27;135.35;;;2.00;94.40;;;;;;5075437;28;20025;-91
2022/03/22 22:02:34;;;;;;;353.52;129.98;;;2.00;94.40;;;;;;5073152;28;20032;-91
2022/03/22 22:05:01;;;;;;;318.75;122.60;;;2.00;94.50;;;;;;5075247;28;20046;-91
2022/03/22 22:07:28;;;;;;;298.35;116.43;;;1.90;94.60;;;;;;5074994;28;20027;-91
2022/03/22 22:09:54;;;;;;;312.48;117.03;;;1.90;94.60;;;;;;5075049;28;20016;-90
2022/03/22 22:12:19;;;;;;;372.40;134.05;;;1.90;94.70;;;;;;5074980;28;20028;-91
2022/03/22 22:14:45;;;;;;;396.02;138.10;;;1.90;95.10;;;;;;5074908;28;20382;-91
2022/03/22 22:17:10;;;;;;;365.67;131.63;;;1.90;95.30;;;;;;5075422;28;20035;-91
2022/03/22 22:19:36;;;;;;;337.23;129.20;;;1.90;95.40;;;;;;5075092;28;20537;-91
2022/03/22 22:22:02;;;;;;;325.60;125.47;;;1.90;95.30;;;;;;5074772;28;20541;-91
2022/03/22 22:24:28;;;;;;;280.00;112.60;;;1.90;95.20;;;;;;5075129;28;20022;-91
2022/03/22 22:26:53;;;;;;;288.00;116.07;;;1.90;95.10;;;;;;5075357;28;20032;-90
2022/03/22 22:29:19;;;;;;;272.70;112.47;;;1.90;95.20;;;;;;5075372;28;20025;-91
2022/03/22 22:34:29;;;;;;;242.52;105.78;;;1.90;95.30;;;;;;5076371;28;20046;-91
2022/03/22 22:36:54;;;;;;;240.00;103.30;;;1.80;95.20;;;;;;5075064;28;20545;-91
2022/03/22 22:39:20;;;;;;;259.73;111.38;;;1.80;95.30;;;;;;5075943;28;20395;-91
2022/03/22 22:41:46;;;;;;;289.95;129.00;;;1.80;95.30;;;;;;5074832;28;20033;-91
2022/03/22 22:44:11;;;;;;;392.02;168.38;;;1.70;95.30;;;;;;5074954;28;20017;-91
2022/03/22 22:46:38;;;;;;;436.90;201.88;;;1.70;95.50;;;;;;5074774;28;20534;-90
2022/03/22 22:49:04;;;;;;;479.52;209.32;;;1.70;95.90;;;;;;5074765;28;20020;-91
2022/03/22 22:51:29;;;;;;;464.45;197.30;;;1.70;96.10;;;;;;5074466;28;20394;-91
2022/03/22 22:53:55;;;;;;;436.98;184.02;;;1.70;96.30;;;;;;5074376;28;20028;-91
2022/03/22 22:56:21;;;;;;;354.75;141.98;;;1.70;96.30;;;;;;5074505;28;20031;-91
2022/03/22 22:58:46;;;;;;;330.58;135.43;;;1.70;96.40;;;;;;5074791;28;20074;-92
2022/03/22 23:01:16;;;;;;;278.45;122.15;;;1.70;96.50;;;;;;5074467;28;20463;-91
2022/03/22 23:03:42;;;;;;;255.63;117.75;;;1.70;96.50;;;;;;5074393;28;20020;-91
2022/03/22 23:06:08;;;;;;;244.63;117.22;;;1.70;96.60;;;;;;5074311;28;20074;-91
2022/03/22 23:11:18;;;;;;;223.50;108.88;;;1.70;96.40;;;;;;5075807;28;20123;-91
2022/03/22 23:13:46;;;;;;;215.82;106.15;;;1.70;96.30;;;;;;5074354;28;20538;-91
2022/03/22 23:16:14;;;;;;;216.50;102.90;;;1.60;96.30;;;;;;5074122;28;20024;-91
2022/03/22 23:18:40;;;;;;;212.55;104.00;;;1.50;96.30;;;;;;5074225;28;20035;-91
2022/03/22 23:21:07;;;;;;;193.30;96.13;;;1.40;96.40;;;;;;5073860;28;20052;-91
2022/03/22 23:23:33;;;;;;;194.80;93.20;;;1.40;96.50;;;;;;5074265;28;20047;-91
2022/03/22 23:25:59;;;;;;;189.98;93.93;;;1.30;96.60;;;;;;5074129;28;20055;-91
2022/03/22 23:28:26;;;;;;;194.27;96.25;;;1.30;96.70;;;;;;5073970;28;20032;-91
2022/03/22 23:30:52;;;;;;;228.27;108.80;;;1.20;96.70;;;;;;5073591;28;20035;-91
2022/03/22 23:33:17;;;;;;;271.10;117.57;;;1.20;96.90;;;;;;5074821;28;20029;-91